createdAt,value
2022-09-13T00:00:51.785Z,14.23
2022-09-13T00:03:21.188Z,13.95
2022-09-13T00:05:49.871Z,14.60
2022-09-13T00:08:18.178Z,14.77
2022-09-13T00:10:47.534Z,14.60
2022-09-13T00:13:17.013Z,14.15
2022-09-13T00:15:46.734Z,13.93
2022-09-13T00:18:14.884Z,14.80
2022-09-13T00:20:42.907Z,16.20
2022-09-13T00:23:11.080Z,14.15
2022-09-13T00:25:39.216Z,14.25
2022-09-13T00:28:08.835Z,13.93
2022-09-13T00:30:36.876Z,15.27
2022-09-13T00:33:05.023Z,15.18
2022-09-13T00:35:33.351Z,15.52
2022-09-13T00:38:02.108Z,15.43
2022-09-13T00:40:30.576Z,14.38
2022-09-13T00:42:58.712Z,15.70
2022-09-13T00:45:28.312Z,15.77
2022-09-13T00:48:00.253Z,16.25
2022-09-13T00:50:34.225Z,15.85
2022-09-13T00:53:06.665Z,14.55
2022-09-13T00:55:42.654Z,14.82
2022-09-13T00:58:17.291Z,16.25
2022-09-13T01:00:48.003Z,17.13
2022-09-13T01:03:20.804Z,16.55
2022-09-13T01:05:53.377Z,17.20
2022-09-13T01:08:23.352Z,18.08
2022-09-13T01:10:52.914Z,18.23
2022-09-13T01:13:23.042Z,18.83
2022-09-13T01:15:52.966Z,18.35
2022-09-13T01:18:21.520Z,18.13
2022-09-13T01:21:28.638Z,17.95
2022-09-13T01:24:31.455Z,17.77
2022-09-13T01:27:31.201Z,16.60
2022-09-13T01:30:22.205Z,16.70
2022-09-13T01:33:18.418Z,17.10
2022-09-13T01:36:09.895Z,17.33
2022-09-13T01:38:49.565Z,16.67
2022-09-13T01:41:38.188Z,16.95
2022-09-13T01:44:13.956Z,17.27
2022-09-13T01:46:50.257Z,18.08
2022-09-13T01:49:29.943Z,18.27
2022-09-13T01:52:02.957Z,18.13
2022-09-13T01:54:39.406Z,18.80
2022-09-13T01:57:14.857Z,19.73
2022-09-13T01:59:50.649Z,20.92
2022-09-13T02:02:28.345Z,19.10
2022-09-13T02:05:01.250Z,19.55
2022-09-13T02:07:34.199Z,21.42
2022-09-13T02:10:07.534Z,19.77
2022-09-13T02:12:39.078Z,20.40
2022-09-13T02:15:14.953Z,19.80
2022-09-13T02:17:48.328Z,19.88
2022-09-13T02:20:22.130Z,19.17
2022-09-13T02:22:55.428Z,18.00
2022-09-13T02:25:25.997Z,18.73
2022-09-13T02:27:59.081Z,20.15
2022-09-13T02:30:28.621Z,19.35
2022-09-13T02:33:00.323Z,19.38
2022-09-13T02:35:34.413Z,19.52
2022-09-13T02:38:10.294Z,19.33
2022-09-13T02:40:44.186Z,18.48
2022-09-13T02:43:16.084Z,18.08
2022-09-13T02:45:49.040Z,18.10
2022-09-13T02:48:26.626Z,18.20
2022-09-13T02:51:01.189Z,18.40
2022-09-13T02:53:37.786Z,19.13
2022-09-13T02:56:16.192Z,19.73
2022-09-13T02:58:47.915Z,17.38
2022-09-13T03:01:16.452Z,16.98
2022-09-13T03:03:45.988Z,17.77
2022-09-13T03:06:14.070Z,16.58
2022-09-13T03:08:42.186Z,17.02
2022-09-13T03:11:18.724Z,17.95
2022-09-13T03:14:19.300Z,15.35
2022-09-13T03:17:07.624Z,16.35
2022-09-13T03:19:58.034Z,16.35
2022-09-13T03:22:47.878Z,15.45
2022-09-13T03:25:27.121Z,16.25
2022-09-13T03:28:04.187Z,15.27
2022-09-13T03:30:35.624Z,14.50
2022-09-13T03:33:12.891Z,16.85
2022-09-13T03:35:51.473Z,16.25
2022-09-13T03:38:22.921Z,15.27
2022-09-13T03:40:54.841Z,14.43
2022-09-13T03:43:30.644Z,13.90
2022-09-13T03:46:01.744Z,15.57
2022-09-13T03:48:31.300Z,15.75
2022-09-13T03:51:01.295Z,16.92
2022-09-13T03:53:31.815Z,17.30
2022-09-13T03:55:59.797Z,16.58
2022-09-13T03:58:28.761Z,16.80
2022-09-13T04:00:57.519Z,16.92
2022-09-13T04:03:25.648Z,16.95
2022-09-13T04:05:53.576Z,15.48
2022-09-13T04:08:22.965Z,15.55
2022-09-13T04:10:52.030Z,16.17
2022-09-13T04:13:22.588Z,15.93
2022-09-13T04:15:50.553Z,16.58
2022-09-13T04:18:19.060Z,14.55
2022-09-13T04:20:54.995Z,15.05
2022-09-13T04:23:24.698Z,14.98
2022-09-13T04:25:53.443Z,14.88
2022-09-13T04:28:23.111Z,15.35
2022-09-13T04:30:51.385Z,13.90
2022-09-13T04:33:19.395Z,15.23
2022-09-13T04:35:47.348Z,14.60
2022-09-13T04:38:15.401Z,14.48
2022-09-13T04:40:44.719Z,15.55
2022-09-13T04:43:12.771Z,15.40
2022-09-13T04:45:40.821Z,13.85
2022-09-13T04:48:09.406Z,14.98
2022-09-13T04:50:37.381Z,15.55
2022-09-13T04:53:05.711Z,15.43
2022-09-13T04:55:33.747Z,15.73
2022-09-13T04:58:03.343Z,14.90
2022-09-13T05:00:31.758Z,14.93
2022-09-13T05:02:59.811Z,14.27
2022-09-13T05:05:28.898Z,14.73
2022-09-13T05:07:57.331Z,14.60
2022-09-13T05:10:25.461Z,15.18
2022-09-13T05:12:53.898Z,14.25
2022-09-13T05:15:23.269Z,14.55
2022-09-13T05:17:51.280Z,14.18
2022-09-13T05:20:19.265Z,14.68
2022-09-13T05:22:47.424Z,14.35
2022-09-13T05:25:15.574Z,14.00
2022-09-13T05:27:43.565Z,14.60
2022-09-13T05:30:12.755Z,15.23
2022-09-13T05:32:42.243Z,14.13
2022-09-13T05:35:10.501Z,13.95
2022-09-13T05:37:38.596Z,14.38
2022-09-13T05:40:11.511Z,14.20
2022-09-13T05:42:40.046Z,13.45
2022-09-13T05:45:09.463Z,13.32
2022-09-13T05:47:37.487Z,13.05
2022-09-13T05:50:10.684Z,12.48
2022-09-13T05:52:39.985Z,12.25
2022-09-13T05:55:08.551Z,12.63
2022-09-13T05:57:38.283Z,12.25
2022-09-13T06:00:07.082Z,12.02
2022-09-13T06:02:40.461Z,11.60
2022-09-13T06:05:11.363Z,11.27
2022-09-13T06:07:41.221Z,12.13
2022-09-13T06:10:10.506Z,11.35
2022-09-13T06:12:38.525Z,10.20
2022-09-13T06:15:07.518Z,10.45
2022-09-13T06:17:35.577Z,11.32
2022-09-13T06:20:04.188Z,11.27
2022-09-13T06:22:35.389Z,11.52
2022-09-13T06:25:03.501Z,11.40
2022-09-13T06:27:31.763Z,11.38
2022-09-13T06:30:00.198Z,11.77
2022-09-13T06:32:28.174Z,11.02
2022-09-13T06:34:56.226Z,11.80
2022-09-13T06:37:24.458Z,11.30
2022-09-13T06:39:53.905Z,11.93
2022-09-13T06:42:21.892Z,11.40
2022-09-13T06:44:51.158Z,11.02
2022-09-13T06:47:19.116Z,11.52
2022-09-13T06:49:47.127Z,11.68
2022-09-13T06:52:15.128Z,10.38
2022-09-13T06:54:43.740Z,11.65
2022-09-13T06:57:13.124Z,10.82
2022-09-13T06:59:41.164Z,10.80
2022-09-13T07:02:10.266Z,10.45
2022-09-13T07:04:38.334Z,10.18
2022-09-13T07:07:06.750Z,11.23
2022-09-13T07:09:34.854Z,10.30
2022-09-13T07:12:03.288Z,11.25
2022-09-13T07:14:32.938Z,12.50
2022-09-13T07:17:00.936Z,15.40
2022-09-13T07:19:29.860Z,13.15
2022-09-13T07:21:58.560Z,13.02
2022-09-13T07:24:27.455Z,16.90
2022-09-13T07:26:55.511Z,15.52
2022-09-13T07:29:24.260Z,11.73
2022-09-13T07:31:55.466Z,13.75
2022-09-13T07:34:24.899Z,12.98
2022-09-13T07:36:53.549Z,12.35
2022-09-13T07:39:22.974Z,12.13
2022-09-13T07:41:51.493Z,12.63
2022-09-13T07:44:19.606Z,13.25
2022-09-13T07:46:47.737Z,12.95
2022-09-13T07:49:19.468Z,12.68
2022-09-13T07:51:51.388Z,14.20
2022-09-13T07:54:20.645Z,13.60
2022-09-13T07:56:50.382Z,14.07
2022-09-13T07:59:19.570Z,13.85
2022-09-13T08:01:48.806Z,13.32
2022-09-13T08:04:19.978Z,12.90
2022-09-13T08:06:48.255Z,12.90
2022-09-13T08:09:17.289Z,13.07
2022-09-13T08:11:47.295Z,13.15
2022-09-13T08:14:16.851Z,12.65
2022-09-13T08:16:45.272Z,12.82
2022-09-13T08:19:15.643Z,11.48
2022-09-13T08:21:45.751Z,11.23
2022-09-13T08:24:15.914Z,11.05
2022-09-13T08:26:44.292Z,11.10
2022-09-13T08:29:13.811Z,11.23
2022-09-13T08:31:41.991Z,10.82
2022-09-13T08:34:12.643Z,10.93
2022-09-13T08:36:41.944Z,10.80
2022-09-13T08:39:13.395Z,11.48
2022-09-13T08:41:59.475Z,10.05
2022-09-13T08:44:31.121Z,10.57
2022-09-13T08:47:12.465Z,11.13
2022-09-13T08:49:45.027Z,10.95
2022-09-13T08:52:25.534Z,11.23
2022-09-13T08:54:58.240Z,11.05
2022-09-13T08:57:33.149Z,11.02
2022-09-13T09:00:06.491Z,11.30
2022-09-13T09:02:55.105Z,10.63
2022-09-13T09:05:26.067Z,10.02
2022-09-13T09:07:59.518Z,8.52
2022-09-13T09:10:32.990Z,9.27
2022-09-13T09:13:06.187Z,7.43
2022-09-13T09:15:37.930Z,7.43
2022-09-13T09:18:14.377Z,4.68
2022-09-13T09:20:44.805Z,4.45
2022-09-13T09:23:21.432Z,5.50
2022-09-13T09:25:55.790Z,4.15
2022-09-13T09:28:23.925Z,4.03
2022-09-13T09:31:01.846Z,4.15
2022-09-13T09:33:45.928Z,4.00
2022-09-13T09:36:25.245Z,3.60
2022-09-13T09:38:53.420Z,3.67
2022-09-13T09:41:29.071Z,4.68
2022-09-13T09:44:05.743Z,3.85
2022-09-13T09:46:37.730Z,4.18
2022-09-13T09:49:35.794Z,3.75
2022-09-13T09:52:06.588Z,3.60
2022-09-13T09:54:39.261Z,3.70
2022-09-13T09:57:09.521Z,3.80
2022-09-13T09:59:37.495Z,3.42
2022-09-13T10:02:17.830Z,3.67
2022-09-13T10:04:56.670Z,3.08
2022-09-13T10:07:29.174Z,2.80
2022-09-13T10:10:04.435Z,2.70
2022-09-13T10:12:36.416Z,2.40
2022-09-13T10:15:07.872Z,2.50
2022-09-13T10:17:36.191Z,3.00
2022-09-13T10:20:21.369Z,3.10
2022-09-13T10:23:12.360Z,2.30
2022-09-13T10:25:44.773Z,2.53
2022-09-13T10:28:20.289Z,2.85
2022-09-13T10:30:50.329Z,2.63
2022-09-13T10:33:27.022Z,2.00
2022-09-13T10:35:58.210Z,1.85
2022-09-13T10:38:31.932Z,2.33
2022-09-13T10:41:02.981Z,1.88
2022-09-13T10:43:34.081Z,1.95
2022-09-13T10:46:05.822Z,2.17
2022-09-13T10:48:46.596Z,2.00
2022-09-13T10:51:30.450Z,2.03
2022-09-13T10:54:24.059Z,1.50
2022-09-13T10:56:52.833Z,1.90
2022-09-13T10:59:28.208Z,2.00
2022-09-13T11:02:30.135Z,2.47
2022-09-13T11:05:06.986Z,2.10
2022-09-13T11:08:16.900Z,1.60
2022-09-13T11:11:01.336Z,1.98
2022-09-13T11:13:44.253Z,2.15
2022-09-13T11:16:28.740Z,1.80
2022-09-13T11:19:33.617Z,1.92
2022-09-13T11:22:21.724Z,2.10
2022-09-13T11:25:04.401Z,2.00
2022-09-13T11:27:42.293Z,2.00
2022-09-13T11:30:16.847Z,2.17
2022-09-13T11:33:22.529Z,1.95
2022-09-13T11:35:58.112Z,2.10
2022-09-13T11:38:37.595Z,2.10
2022-09-13T11:41:17.020Z,2.17
2022-09-13T11:43:56.589Z,2.05
2022-09-13T11:46:34.354Z,2.10
2022-09-13T11:49:30.596Z,2.13
2022-09-13T11:52:08.728Z,1.95
2022-09-13T11:54:53.682Z,2.10
2022-09-13T11:57:28.152Z,2.20
2022-09-13T11:59:59.896Z,2.10
2022-09-13T12:02:35.775Z,2.20
2022-09-13T12:05:22.114Z,2.30
2022-09-13T12:07:55.097Z,2.30
2022-09-13T12:10:26.762Z,2.47
2022-09-13T12:12:56.780Z,2.42
2022-09-13T12:15:35.105Z,2.38
2022-09-13T12:18:09.172Z,2.58
2022-09-13T12:20:42.837Z,2.38
2022-09-13T12:23:17.159Z,2.50
2022-09-13T12:25:51.435Z,2.47
2022-09-13T12:28:24.793Z,2.65
2022-09-13T12:30:59.236Z,2.55
2022-09-13T12:33:27.507Z,2.60
2022-09-13T12:36:37.529Z,2.90
2022-09-13T12:39:26.656Z,3.13
2022-09-13T12:42:18.336Z,2.88
2022-09-13T12:45:06.589Z,3.17
2022-09-13T12:47:57.416Z,2.97
2022-09-13T12:51:06.991Z,2.85
2022-09-13T12:54:03.715Z,3.05
2022-09-13T12:56:46.611Z,3.05
2022-09-13T12:59:39.550Z,3.38
2022-09-13T13:02:28.305Z,3.53
2022-09-13T13:05:01.380Z,3.67
2022-09-13T13:07:32.057Z,4.40
2022-09-13T13:10:03.184Z,5.40
2022-09-13T13:12:34.427Z,4.20
2022-09-13T13:15:03.350Z,3.60
2022-09-13T13:17:44.827Z,3.63
2022-09-13T13:20:48.733Z,4.00
2022-09-13T13:23:27.205Z,3.40
2022-09-13T13:26:09.611Z,3.60
2022-09-13T13:29:15.529Z,3.05
2022-09-13T13:32:04.297Z,4.00
2022-09-13T13:34:40.161Z,3.50
2022-09-13T13:37:27.357Z,3.60
2022-09-13T13:40:29.334Z,3.90
2022-09-13T13:43:33.777Z,3.83
2022-09-13T13:46:28.584Z,4.20
2022-09-13T13:48:57.431Z,3.90
2022-09-13T13:51:29.581Z,4.80
2022-09-13T13:54:01.788Z,4.00
2022-09-13T13:56:48.622Z,3.70
2022-09-13T13:59:24.061Z,4.32
2022-09-13T14:01:59.316Z,4.32
2022-09-13T14:05:01.374Z,4.00
2022-09-13T14:07:57.833Z,3.92
2022-09-13T14:10:30.987Z,3.58
2022-09-13T14:13:21.163Z,4.05
2022-09-13T14:16:00.726Z,3.97
2022-09-13T14:18:49.549Z,4.00
2022-09-13T14:21:23.525Z,4.63
2022-09-13T14:23:51.862Z,4.07
2022-09-13T14:26:19.918Z,3.97
2022-09-13T14:28:48.123Z,3.85
2022-09-13T14:31:21.233Z,4.07
2022-09-13T14:33:49.626Z,4.00
2022-09-13T14:36:20.750Z,4.20
2022-09-13T14:38:55.095Z,4.70
2022-09-13T14:41:32.177Z,4.60
2022-09-13T14:44:23.738Z,4.18
2022-09-13T14:47:03.147Z,3.72
2022-09-13T14:49:35.820Z,4.15
2022-09-13T14:52:07.572Z,3.92
2022-09-13T14:54:39.734Z,3.88
2022-09-13T14:57:11.374Z,4.03
2022-09-13T14:59:45.622Z,4.18
2022-09-13T15:02:21.658Z,3.70
2022-09-13T15:04:52.870Z,4.22
2022-09-13T15:07:24.689Z,4.30
2022-09-13T15:09:58.789Z,4.50
2022-09-13T15:12:30.000Z,4.35
2022-09-13T15:15:22.342Z,4.47
2022-09-13T15:17:58.867Z,4.25
2022-09-13T15:20:28.796Z,4.47
2022-09-13T15:22:57.486Z,4.22
2022-09-13T15:25:28.413Z,4.07
2022-09-13T15:28:00.249Z,4.10
2022-09-13T15:30:31.029Z,4.70
2022-09-13T15:33:23.914Z,4.93
2022-09-13T15:35:53.623Z,5.53
2022-09-13T15:38:27.974Z,5.00
2022-09-13T15:41:02.501Z,4.60
2022-09-13T15:43:31.435Z,5.10
2022-09-13T15:46:01.594Z,4.20
2022-09-13T15:48:33.222Z,4.40
2022-09-13T15:51:12.294Z,5.43
2022-09-13T15:53:41.859Z,5.30
2022-09-13T15:56:13.839Z,5.05
2022-09-13T15:58:42.044Z,5.78
2022-09-13T16:01:12.204Z,5.68
2022-09-13T16:03:41.999Z,5.68
2022-09-13T16:06:11.002Z,6.05
2022-09-13T16:08:39.696Z,5.72
2022-09-13T16:11:08.337Z,5.32
2022-09-13T16:13:36.496Z,5.80
2022-09-13T16:16:06.287Z,5.65
2022-09-13T16:18:34.392Z,6.70
2022-09-13T16:21:04.231Z,6.13
2022-09-13T16:23:32.316Z,6.20
2022-09-13T16:26:00.985Z,6.00
2022-09-13T16:28:29.320Z,6.80
2022-09-13T16:30:57.397Z,6.55
2022-09-13T16:33:25.507Z,6.78
2022-09-13T16:35:53.486Z,7.40
2022-09-13T16:38:23.407Z,7.57
2022-09-13T16:40:52.272Z,7.97
2022-09-13T16:43:20.316Z,7.82
2022-09-13T16:45:50.464Z,7.38
2022-09-13T16:48:18.593Z,7.53
2022-09-13T16:50:46.591Z,8.13
2022-09-13T16:53:14.639Z,8.55
2022-09-13T16:55:45.780Z,7.82
2022-09-13T16:58:13.804Z,9.02
2022-09-13T17:00:44.458Z,8.05
2022-09-13T17:03:12.550Z,8.73
2022-09-13T17:05:40.711Z,8.65
2022-09-13T17:08:09.485Z,8.50
2022-09-13T17:10:39.270Z,9.07
2022-09-13T17:13:09.708Z,8.27
2022-09-13T17:15:40.663Z,8.32
2022-09-13T17:18:09.632Z,8.68
2022-09-13T17:20:38.528Z,8.10
2022-09-13T17:23:07.184Z,8.20
2022-09-13T17:25:35.798Z,8.85
2022-09-13T17:28:04.288Z,8.40
2022-09-13T17:30:34.255Z,8.82
2022-09-13T17:33:03.104Z,9.15
2022-09-13T17:35:31.171Z,8.25
2022-09-13T17:37:59.524Z,8.65
2022-09-13T17:40:27.943Z,8.95
2022-09-13T17:42:56.873Z,8.70
2022-09-13T17:45:26.254Z,9.57
2022-09-13T17:47:57.272Z,8.98
2022-09-13T17:50:26.049Z,9.65
2022-09-13T17:52:54.819Z,8.95
2022-09-13T17:55:23.024Z,8.63
2022-09-13T17:57:51.562Z,8.85
2022-09-13T18:00:20.819Z,9.20
2022-09-13T18:02:49.616Z,9.02
2022-09-13T18:05:19.245Z,9.13
2022-09-13T18:07:47.401Z,8.32
2022-09-13T18:10:40.411Z,8.30
2022-09-13T18:13:04.153Z,8.40
2022-09-13T18:15:32.798Z,7.75
2022-09-13T18:18:00.913Z,8.75
2022-09-13T18:20:30.781Z,7.70
2022-09-13T18:23:00.261Z,8.05
2022-09-13T18:25:28.451Z,8.57
2022-09-13T18:27:56.931Z,8.60
2022-09-13T18:30:24.913Z,8.63
2022-09-13T18:32:53.532Z,7.75
2022-09-13T18:35:22.585Z,7.90
2022-09-13T18:37:53.844Z,8.25
2022-09-13T18:40:23.192Z,7.28
2022-09-13T18:42:51.972Z,7.30
2022-09-13T18:45:20.499Z,7.10
2022-09-13T18:47:48.663Z,6.95
2022-09-13T18:50:19.997Z,7.38
2022-09-13T18:52:49.555Z,7.20
2022-09-13T18:55:19.570Z,7.10
2022-09-13T18:57:48.431Z,7.82
2022-09-13T19:00:19.284Z,7.13
2022-09-13T19:03:10.800Z,7.28
2022-09-13T19:05:40.299Z,6.68
2022-09-13T19:08:14.023Z,7.15
2022-09-13T19:10:44.608Z,6.90
2022-09-13T19:13:14.492Z,7.32
2022-09-13T19:15:43.450Z,7.03
2022-09-13T19:18:12.123Z,7.22
2022-09-13T19:20:42.398Z,7.68
2022-09-13T19:23:11.186Z,9.18
2022-09-13T19:25:39.832Z,7.30
2022-09-13T19:28:11.760Z,7.07
2022-09-13T19:30:41.064Z,7.30
2022-09-13T19:33:09.505Z,7.30
2022-09-13T19:35:37.862Z,7.95
2022-09-13T19:38:06.385Z,7.55
2022-09-13T19:40:34.466Z,7.55
2022-09-13T19:43:04.627Z,7.38
2022-09-13T19:45:35.766Z,7.65
2022-09-13T19:50:55.216Z,6.97
2022-09-13T19:53:40.865Z,7.68
2022-09-13T19:56:14.928Z,7.53
2022-09-13T19:58:44.837Z,7.40
2022-09-13T20:01:17.571Z,6.95
2022-09-13T20:03:53.044Z,7.25
2022-09-13T20:06:24.130Z,7.70
2022-09-13T20:08:53.880Z,7.78
2022-09-13T20:11:26.145Z,7.45
2022-09-13T20:13:54.744Z,7.55
2022-09-13T20:16:27.886Z,7.00
2022-09-13T20:18:58.041Z,7.00
2022-09-13T20:21:27.466Z,7.32
2022-09-13T20:23:57.574Z,7.03
2022-09-13T20:26:27.655Z,8.30
2022-09-13T20:28:57.144Z,7.88
2022-09-13T20:31:28.508Z,7.70
2022-09-13T20:33:58.198Z,8.32
2022-09-13T20:36:29.963Z,7.55
2022-09-13T20:39:03.128Z,7.93
2022-09-13T20:41:32.990Z,7.70
2022-09-13T20:44:02.859Z,8.00
2022-09-13T20:46:32.847Z,8.57
2022-09-13T20:49:01.970Z,8.10
2022-09-13T20:51:34.511Z,8.23
2022-09-13T20:54:03.229Z,8.45
2022-09-13T20:56:34.615Z,8.15
2022-09-13T20:59:03.609Z,8.13
2022-09-13T21:01:33.861Z,8.55
2022-09-13T21:04:02.945Z,8.32
2022-09-13T21:06:37.166Z,8.00
2022-09-13T21:09:04.572Z,8.57
2022-09-13T21:11:35.187Z,9.52
2022-09-13T21:14:05.716Z,9.00
2022-09-13T21:16:40.827Z,8.95
2022-09-13T21:19:09.606Z,9.15
2022-09-13T21:21:40.195Z,9.70
2022-09-13T21:24:09.951Z,8.98
2022-09-13T21:26:39.779Z,9.10
2022-09-13T21:29:09.571Z,8.95
2022-09-13T21:31:39.876Z,9.48
2022-09-13T21:34:09.601Z,9.43
2022-09-13T21:36:37.717Z,9.32
2022-09-13T21:39:06.559Z,9.30
2022-09-13T21:41:35.255Z,9.05
2022-09-13T21:44:03.680Z,9.75
2022-09-13T21:46:34.514Z,10.02
2022-09-13T21:49:06.320Z,10.20
2022-09-13T21:51:36.319Z,10.90
2022-09-13T21:54:07.233Z,11.02
2022-09-13T21:56:37.627Z,11.23
2022-09-13T21:59:07.409Z,11.90
2022-09-13T22:01:38.536Z,13.27
2022-09-13T22:04:09.182Z,14.10
2022-09-13T22:06:38.386Z,14.05
2022-09-13T22:09:08.031Z,13.60
2022-09-13T22:11:39.134Z,13.98
2022-09-13T22:14:09.825Z,13.90
2022-09-13T22:16:39.967Z,16.02
2022-09-13T22:19:11.486Z,15.65
2022-09-13T22:21:42.190Z,16.23
2022-09-13T22:24:14.703Z,15.52
2022-09-13T22:26:43.409Z,15.30
2022-09-13T22:29:12.140Z,14.15
2022-09-13T22:31:42.160Z,14.57
2022-09-13T22:34:15.561Z,16.90
2022-09-13T22:36:44.229Z,17.08
2022-09-13T22:39:13.963Z,17.38
2022-09-13T22:41:42.702Z,17.15
2022-09-13T22:44:11.191Z,15.73
2022-09-13T22:46:41.197Z,16.45
2022-09-13T22:49:14.451Z,17.52
2022-09-13T22:51:45.024Z,18.05
2022-09-13T22:54:13.950Z,18.40
2022-09-13T22:56:42.923Z,17.63
2022-09-13T22:59:13.960Z,17.52
2022-09-13T23:01:42.392Z,17.65
2022-09-13T23:04:10.496Z,18.30
2022-09-13T23:06:40.381Z,20.15
2022-09-13T23:09:09.578Z,17.38
2022-09-13T23:11:39.555Z,17.95
2022-09-13T23:14:09.903Z,18.58
2022-09-13T23:16:43.177Z,18.80
2022-09-13T23:19:12.998Z,19.45
2022-09-13T23:21:43.759Z,19.27
2022-09-13T23:24:14.525Z,19.40
2022-09-13T23:26:43.033Z,20.35
2022-09-13T23:29:13.380Z,21.05
2022-09-13T23:31:42.575Z,21.40
2022-09-13T23:34:12.331Z,22.98
2022-09-13T23:36:43.459Z,23.17
2022-09-13T23:39:16.554Z,22.77
2022-09-13T23:41:45.414Z,23.83
2022-09-13T23:44:13.655Z,21.23
2022-09-13T23:46:42.215Z,22.83
2022-09-13T23:49:10.451Z,21.80
2022-09-13T23:51:38.502Z,20.20
2022-09-13T23:54:08.032Z,21.20
2022-09-13T23:56:36.972Z,18.10
2022-09-13T23:59:06.292Z,15.73
